Boston, Texas
Current Conditions -  °F | °C
As of 8:34 PM on Thursday 20 Nov 2014 (Local Time) from KTXK Reporting Station
Haze Haze  
Wind Chill:   Ceiling: 4200
Heat Index:   Visibility: 3mi
Dew Point:   Wind: 6mph
Humidity: 100%   Direction: 50°NE
Pressure: 30.12"   Gusts: NA
Location:  33.4799°N, 94.4582°W
Report Text: KTXK 210234Z 05005KT 3SM BR BKN042 OVC050 09/09 A3012 RMK AO2 T00940094
Loading
Personal Weather Stations






























Interactive Weather Map New forecast layout! Learn more

10-Day Weather Forecast

Advertisements
Track Severe Weather on mobile